Containerships V — DHEW — position and weather

sailwx.info

Track history (hours):
 
Tides and Currents Weather Stations Pressure Air Temp Water Temp Dewpoint Dewpoint Depression Visibility Wind Speed Wind Dir Waves Ship Positions

Containerships V

Last reported at 2017-Nov-20 00:30 UTC. Time now 2017-Nov-21 10:00 UTC.
Position N 29°16' W 014°02'.

Length 151 m; draft 7.8 m.

Type: Cargo ship. MMSI: 211235880.

Date/timePositionNaut miles runAvg speedWind from/ knotsBaromVisibWave heightAir tempDewpointWater temp
2017-Nov-20 00:30N 29°16' W 014°02'917.0
2017-Nov-19 23:58N 29°22' W 013°55'816.7
2017-Nov-19 23:30N 29°28' W 013°48'57618.0
2017-Nov-18 15:25N 35°59' W 005°26'717.2
2017-Nov-18 15:01N 36°02' W 005°18'21517.4
2017-Nov-18 02:37N 37°13' W 001°05'218.3
2017-Nov-18 02:30N 37°14' W 001°03'1018.1
2017-Nov-18 01:58N 37°21' W 000°54'918.1
2017-Nov-18 01:30N 37°26' W 000°46'918.2
2017-Nov-18 01:00N 37°32' W 000°37'917.0
2017-Nov-18 00:30N 37°40' W 000°31'917.9
2017-Nov-18 00:00N 37°48' W 000°28'917.8
2017-Nov-17 23:31N 37°57' W 000°26'917.5
2017-Nov-17 23:00N 38°05' W 000°23'9 0.4
2017-Nov-17 02:00N 38°14' W 000°21'1 0.7
2017-Nov-17 00:15N 38°14' W 000°19'14 3.6
2017-Nov-16 20:18N 38°01' W 000°24'414.7
2017-Nov-16 20:00N 37°56' W 000°25'714.6
2017-Nov-16 19:30N 37°49' W 000°27'714.4
2017-Nov-16 19:00N 37°42' W 000°28'714.2
2017-Nov-16 18:30N 37°35' W 000°30'713.5
2017-Nov-16 18:00N 37°30' W 000°35'714.0
2017-Nov-16 17:30N 37°25' W 000°42'714.0
2017-Nov-16 17:00N 37°20' W 000°48'714.0
2017-Nov-16 16:30N 37°16' W 000°55'21814.5
2017-Nov-16 01:25N 36°00' W 005°10'717.1
2017-Nov-16 01:00N 35°59' W 005°19'816.7
2017-Nov-16 00:30N 35°57' W 005°29'58315.5
2017-Nov-14 10:50N 29°47' W 014°25'515.5
2017-Nov-14 10:29N 29°44' W 014°30'1015.6
2017-Nov-14 09:53N 29°39' W 014°38'1015.6
2017-Nov-14 09:13N 29°32' W 014°47'415.5
2017-Nov-14 08:57N 29°29' W 014°51'815.7
2017-Nov-14 08:25N 29°23' W 014°58'1015.8
2017-Nov-14 07:47N 29°17' W 015°06'415.7
2017-Nov-14 07:30N 29°14' W 015°10'815.9
2017-Nov-14 07:00N 29°08' W 015°17'816.0
2017-Nov-14 06:30N 29°03' W 015°24'815.9
2017-Nov-14 05:58N 28°57' W 015°31'715.5
2017-Nov-14 05:30N 28°52' W 015°37'815.6
2017-Nov-14 05:00N 28°47' W 015°43'815.4
2017-Nov-14 04:30N 28°42' W 015°50'815.4
2017-Nov-14 04:00N 28°37' W 015°57'815.3
2017-Nov-14 03:30N 28°32' W 016°03'814.5
2017-Nov-14 02:59N 28°29' W 016°11'2 3.0
2017-Nov-14 02:09N 28°29' W 016°14'0 0.0
2017-Nov-14 01:39N 28°29' W 016°14'0 0.0
2017-Nov-14 01:24N 28°29' W 016°14'0 0.0
2017-Nov-14 00:57N 28°29' W 016°14'0 0.0
2017-Nov-14 00:27N 28°29' W 016°14'0 0.0
2017-Nov-13 23:57N 28°29' W 016°14'0 0.0
2017-Nov-13 23:27N 28°29' W 016°14'0 0.0
2017-Nov-13 22:42N 28°29' W 016°14'0 0.1
2017-Nov-13 22:24N 28°29' W 016°14'0 0.0
2017-Nov-13 21:54N 28°29' W 016°14'109 5.5
2017-Nov-13 02:01N 29°04' W 014°16'918.5
2017-Nov-13 01:30N 29°10' W 014°09'918.6
2017-Nov-13 01:00N 29°17' W 014°01'918.7
2017-Nov-13 00:30N 29°23' W 013°53'918.7
2017-Nov-13 00:01N 29°30' W 013°46'918.5
2017-Nov-12 23:31N 29°36' W 013°38'918.1
2017-Nov-12 23:01N 29°43' W 013°31'917.8
2017-Nov-12 22:29N 29°49' W 013°23'1118.0
2017-Nov-12 21:53N 29°56' W 013°14'818.0
2017-Nov-12 21:27N 30°02' W 013°08'818.0
2017-Nov-12 21:00N 30°07' W 013°01'917.9
2017-Nov-12 20:30N 30°13' W 012°53'917.8
2017-Nov-12 20:00N 30°19' W 012°46'918.0
2017-Nov-12 19:30N 30°26' W 012°38'1018.1
2017-Nov-12 18:58N 30°32' W 012°30'818.4
2017-Nov-12 18:30N 30°38' W 012°23'1018.4
2017-Nov-12 17:59N 30°45' W 012°15'918.5
2017-Nov-12 17:30N 30°51' W 012°07'918.1
2017-Nov-12 17:00N 30°57' W 011°60'918.7
2017-Nov-12 16:30N 31°04' W 011°52'919.0
2017-Nov-12 16:00N 31°10' W 011°44'42018.1
2017-Nov-11 16:49N 35°58' W 005°35'916.1
2017-Nov-11 16:16N 36°00' W 005°25'415.0
2017-Nov-11 16:00N 36°01' W 005°20'815.3
2017-Nov-11 15:31N 36°04' W 005°12'21017.0
2017-Nov-11 03:10N 37°13' W 001°04'318.9
2017-Nov-11 03:00N 37°15' W 001°01'918.9
2017-Nov-11 02:31N 37°21' W 000°52'918.4
2017-Nov-11 02:01N 37°27' W 000°43'918.0
2017-Nov-11 01:31N 37°33' W 000°35'917.4
2017-Nov-11 01:00N 37°41' W 000°31'917.4
2017-Nov-11 00:30N 37°50' W 000°28'817.1
2017-Nov-11 00:00N 37°58' W 000°26'1017.5
2017-Nov-10 23:27N 38°08' W 000°23'717.0
2017-Nov-10 23:00N 38°15' W 000°26'5 0.3
2017-Nov-10 03:27N 38°10' W 000°23'1116.5
2017-Nov-10 02:47N 37°59' W 000°24'517.0
2017-Nov-10 02:31N 37°54' W 000°25'916.8
2017-Nov-10 02:00N 37°46' W 000°27'816.6
2017-Nov-10 01:30N 37°38' W 000°28'815.8
2017-Nov-10 01:00N 37°31' W 000°34'816.6
2017-Nov-10 00:30N 37°26' W 000°42'  
Track history (hours):
 
Tides and Currents Weather Stations Pressure Air Temp Water Temp Dewpoint Dewpoint Depression Visibility Wind Speed Wind Dir Waves Ship Positions

Containerships V

Last reported at 2017-Nov-20 00:30 UTC. Time now 2017-Nov-21 10:00 UTC.
Position N 29°16' W 014°02'.

Length 151 m; draft 7.8 m.

Type: Cargo ship. MMSI: 211235880.

Date/timePositionNaut miles runAvg speedWind from/ knotsBaromVisibWave heightAir tempDewpointWater temp
2017-Nov-20 00:30N 29°16' W 014°02'917.0
2017-Nov-19 23:58N 29°22' W 013°55'816.7
2017-Nov-19 23:30N 29°28' W 013°48'57618.0
2017-Nov-18 15:25N 35°59' W 005°26'717.2
2017-Nov-18 15:01N 36°02' W 005°18'21517.4
2017-Nov-18 02:37N 37°13' W 001°05'218.3
2017-Nov-18 02:30N 37°14' W 001°03'1018.1
2017-Nov-18 01:58N 37°21' W 000°54'918.1
2017-Nov-18 01:30N 37°26' W 000°46'918.2
2017-Nov-18 01:00N 37°32' W 000°37'917.0
2017-Nov-18 00:30N 37°40' W 000°31'917.9
2017-Nov-18 00:00N 37°48' W 000°28'917.8
2017-Nov-17 23:31N 37°57' W 000°26'917.5
2017-Nov-17 23:00N 38°05' W 000°23'9 0.4
2017-Nov-17 02:00N 38°14' W 000°21'1 0.7
2017-Nov-17 00:15N 38°14' W 000°19'14 3.6
2017-Nov-16 20:18N 38°01' W 000°24'414.7
2017-Nov-16 20:00N 37°56' W 000°25'714.6
2017-Nov-16 19:30N 37°49' W 000°27'714.4
2017-Nov-16 19:00N 37°42' W 000°28'714.2
2017-Nov-16 18:30N 37°35' W 000°30'713.5
2017-Nov-16 18:00N 37°30' W 000°35'714.0
2017-Nov-16 17:30N 37°25' W 000°42'714.0
2017-Nov-16 17:00N 37°20' W 000°48'714.0
2017-Nov-16 16:30N 37°16' W 000°55'21814.5
2017-Nov-16 01:25N 36°00' W 005°10'717.1
2017-Nov-16 01:00N 35°59' W 005°19'816.7
2017-Nov-16 00:30N 35°57' W 005°29'58315.5
2017-Nov-14 10:50N 29°47' W 014°25'515.5
2017-Nov-14 10:29N 29°44' W 014°30'1015.6
2017-Nov-14 09:53N 29°39' W 014°38'1015.6
2017-Nov-14 09:13N 29°32' W 014°47'415.5
2017-Nov-14 08:57N 29°29' W 014°51'815.7
2017-Nov-14 08:25N 29°23' W 014°58'1015.8
2017-Nov-14 07:47N 29°17' W 015°06'415.7
2017-Nov-14 07:30N 29°14' W 015°10'815.9
2017-Nov-14 07:00N 29°08' W 015°17'816.0
2017-Nov-14 06:30N 29°03' W 015°24'815.9
2017-Nov-14 05:58N 28°57' W 015°31'715.5
2017-Nov-14 05:30N 28°52' W 015°37'815.6
2017-Nov-14 05:00N 28°47' W 015°43'815.4
2017-Nov-14 04:30N 28°42' W 015°50'815.4
2017-Nov-14 04:00N 28°37' W 015°57'815.3
2017-Nov-14 03:30N 28°32' W 016°03'814.5
2017-Nov-14 02:59N 28°29' W 016°11'2 3.0
2017-Nov-14 02:09N 28°29' W 016°14'0 0.0
2017-Nov-14 01:39N 28°29' W 016°14'0 0.0
2017-Nov-14 01:24N 28°29' W 016°14'0 0.0
2017-Nov-14 00:57N 28°29' W 016°14'0 0.0
2017-Nov-14 00:27N 28°29' W 016°14'0 0.0
2017-Nov-13 23:57N 28°29' W 016°14'0 0.0
2017-Nov-13 23:27N 28°29' W 016°14'0 0.0
2017-Nov-13 22:42N 28°29' W 016°14'0 0.1
2017-Nov-13 22:24N 28°29' W 016°14'0 0.0
2017-Nov-13 21:54N 28°29' W 016°14'109 5.5
2017-Nov-13 02:01N 29°04' W 014°16'918.5
2017-Nov-13 01:30N 29°10' W 014°09'918.6
2017-Nov-13 01:00N 29°17' W 014°01'918.7
2017-Nov-13 00:30N 29°23' W 013°53'918.7
2017-Nov-13 00:01N 29°30' W 013°46'918.5
2017-Nov-12 23:31N 29°36' W 013°38'918.1
2017-Nov-12 23:01N 29°43' W 013°31'917.8
2017-Nov-12 22:29N 29°49' W 013°23'1118.0
2017-Nov-12 21:53N 29°56' W 013°14'818.0
2017-Nov-12 21:27N 30°02' W 013°08'818.0
2017-Nov-12 21:00N 30°07' W 013°01'917.9
2017-Nov-12 20:30N 30°13' W 012°53'917.8
2017-Nov-12 20:00N 30°19' W 012°46'918.0
2017-Nov-12 19:30N 30°26' W 012°38'1018.1
2017-Nov-12 18:58N 30°32' W 012°30'818.4
2017-Nov-12 18:30N 30°38' W 012°23'1018.4
2017-Nov-12 17:59N 30°45' W 012°15'918.5
2017-Nov-12 17:30N 30°51' W 012°07'918.1
2017-Nov-12 17:00N 30°57' W 011°60'918.7
2017-Nov-12 16:30N 31°04' W 011°52'919.0
2017-Nov-12 16:00N 31°10' W 011°44'42018.1
2017-Nov-11 16:49N 35°58' W 005°35'916.1
2017-Nov-11 16:16N 36°00' W 005°25'415.0
2017-Nov-11 16:00N 36°01' W 005°20'815.3
2017-Nov-11 15:31N 36°04' W 005°12'21017.0
2017-Nov-11 03:10N 37°13' W 001°04'318.9
2017-Nov-11 03:00N 37°15' W 001°01'918.9
2017-Nov-11 02:31N 37°21' W 000°52'918.4
2017-Nov-11 02:01N 37°27' W 000°43'918.0
2017-Nov-11 01:31N 37°33' W 000°35'917.4
2017-Nov-11 01:00N 37°41' W 000°31'917.4
2017-Nov-11 00:30N 37°50' W 000°28'817.1
2017-Nov-11 00:00N 37°58' W 000°26'1017.5
2017-Nov-10 23:27N 38°08' W 000°23'717.0
2017-Nov-10 23:00N 38°15' W 000°26'5 0.3
2017-Nov-10 03:27N 38°10' W 000°23'1116.5
2017-Nov-10 02:47N 37°59' W 000°24'517.0
2017-Nov-10 02:31N 37°54' W 000°25'916.8
2017-Nov-10 02:00N 37°46' W 000°27'816.6
2017-Nov-10 01:30N 37°38' W 000°28'815.8
2017-Nov-10 01:00N 37°31' W 000°34'816.6
2017-Nov-10 00:30N 37°26' W 000°42'  

Dump ship's entire track history